Time;durP1;ratioP1;P1;durP2;ratioP2;P2;SDS_P1;SDS_P2;PMS_P1;PMS_P2;Temp;Humidity;BMP_temperature;BMP_pressure;BME280_temperature;BME280_humidity;BME280_pressure;Samples;Min_cycle;Max_cycle;Signal;HPM_P1;HPM_P2
2022/04/09 00:02:08;;;;;;;4.35;2.80;;;8.40;84.70;;;;;;5013409;28;20021;-68
2022/04/09 00:04:34;;;;;;;5.50;2.60;;;8.20;84.70;;;;;;5013955;28;20492;-69
2022/04/09 00:06:59;;;;;;;11.23;3.35;;;8.20;84.80;;;;;;5014193;28;20037;-69
2022/04/09 00:09:25;;;;;;;4.55;2.60;;;8.20;84.90;;;;;;5013806;28;20776;-69
2022/04/09 00:11:51;;;;;;;8.05;2.90;;;8.20;84.90;;;;;;5026739;28;20061;-69
2022/04/09 00:14:17;;;;;;;5.85;2.95;;;8.20;85.00;;;;;;5013938;28;20061;-69
2022/04/09 00:16:43;;;;;;;6.70;2.70;;;8.20;85.10;;;;;;5013200;28;20033;-70
2022/04/09 00:19:09;;;;;;;5.15;2.55;;;8.20;85.10;;;;;;5014033;28;20103;-70
2022/04/09 00:21:35;;;;;;;7.13;2.60;;;8.30;85.30;;;;;;5013080;28;20473;-70
2022/04/09 00:24:00;;;;;;;5.20;2.90;;;8.20;85.30;;;;;;5014352;28;20022;-70
2022/04/09 00:26:26;;;;;;;5.57;2.80;;;8.30;85.40;;;;;;5013278;28;20034;-70
2022/04/09 00:28:52;;;;;;;6.10;2.85;;;8.30;85.50;;;;;;5013402;28;20030;-70
2022/04/09 00:31:17;;;;;;;6.88;2.90;;;8.20;85.50;;;;;;5013259;28;20413;-70
2022/04/09 00:33:43;;;;;;;6.03;2.95;;;8.20;85.60;;;;;;5013784;28;20125;-69
2022/04/09 00:36:08;;;;;;;5.72;3.17;;;8.20;85.70;;;;;;5013718;28;20125;-69
2022/04/09 00:38:34;;;;;;;4.05;2.47;;;8.20;85.70;;;;;;5013742;28;20049;-69
2022/04/09 00:40:59;;;;;;;4.78;2.33;;;8.20;85.80;;;;;;5013437;28;20053;-69
2022/04/09 00:43:24;;;;;;;7.47;2.70;;;8.10;85.70;;;;;;5015449;28;20029;-69
2022/04/09 00:45:50;;;;;;;6.63;2.95;;;8.20;85.80;;;;;;5012914;28;20034;-69
2022/04/09 00:48:20;;;;;;;4.15;2.50;;;8.10;85.90;;;;;;5019443;28;20035;-69
2022/04/09 00:50:46;;;;;;;5.25;2.40;;;8.10;85.90;;;;;;5013309;28;20038;-69
2022/04/09 00:53:18;;;;;;;7.57;2.92;;;8.10;86.00;;;;;;5012687;28;20022;-68
2022/04/09 00:58:30;;;;;;;5.78;2.60;;;7.90;86.60;;;;;;5022443;28;20038;-68
2022/04/09 01:00:55;;;;;;;6.00;2.40;;;7.90;86.70;;;;;;5013304;28;20083;-68
2022/04/09 01:03:21;;;;;;;3.83;2.22;;;7.90;86.50;;;;;;5024638;28;20041;-68
2022/04/09 01:05:48;;;;;;;5.63;2.47;;;7.90;86.60;;;;;;5032640;28;20033;-68
2022/04/09 01:08:14;;;;;;;6.57;2.50;;;7.90;86.70;;;;;;5027142;28;20053;-68
2022/04/09 01:10:40;;;;;;;6.00;3.42;;;7.90;86.60;;;;;;5020049;28;20116;-68
2022/04/09 01:13:06;;;;;;;5.97;2.45;;;7.80;86.90;;;;;;5018190;28;20205;-68
2022/04/09 01:15:32;;;;;;;4.40;2.72;;;7.80;86.80;;;;;;5013028;28;20032;-69
2022/04/09 01:17:59;;;;;;;6.38;2.42;;;7.70;86.80;;;;;;5011860;28;20473;-68
2022/04/09 01:20:29;;;;;;;5.05;2.08;;;7.80;87.00;;;;;;5032186;28;20029;-68
2022/04/09 01:22:55;;;;;;;4.53;2.17;;;7.70;87.00;;;;;;5020235;28;20114;-68
2022/04/09 01:25:21;;;;;;;5.57;2.58;;;7.70;87.30;;;;;;5012302;28;20567;-68
2022/04/09 01:27:48;;;;;;;5.90;2.97;;;7.70;87.20;;;;;;5014178;28;20117;-69
2022/04/09 01:30:16;;;;;;;6.85;3.00;;;7.60;87.00;;;;;;5012685;28;20100;-68
2022/04/09 01:32:41;;;;;;;6.85;2.03;;;7.60;87.10;;;;;;5020683;28;20469;-68
2022/04/09 01:35:07;;;;;;;4.20;1.95;;;7.70;87.20;;;;;;5031371;28;20044;-68
2022/04/09 01:37:32;;;;;;;4.15;2.30;;;7.60;87.30;;;;;;5022763;28;20026;-69
2022/04/09 01:39:58;;;;;;;3.63;2.70;;;7.60;87.30;;;;;;5012148;28;20034;-69
2022/04/09 01:42:26;;;;;;;6.18;2.50;;;7.60;87.40;;;;;;5012307;28;20030;-69
2022/04/09 01:44:55;;;;;;;6.18;2.38;;;7.60;87.40;;;;;;5019815;28;20129;-69
2022/04/09 01:47:21;;;;;;;6.53;2.22;;;7.60;87.60;;;;;;5011771;28;20026;-69
2022/04/09 01:49:46;;;;;;;5.00;2.15;;;7.60;87.50;;;;;;5012425;28;20034;-69
2022/04/09 01:52:12;;;;;;;4.50;2.00;;;7.60;87.50;;;;;;5013043;28;20041;-69
2022/04/09 01:54:37;;;;;;;5.93;2.40;;;7.50;87.90;;;;;;5012481;28;20034;-68
2022/04/09 01:57:03;;;;;;;4.60;2.13;;;7.50;88.00;;;;;;5015024;28;20072;-69
2022/04/09 01:59:29;;;;;;;4.00;1.88;;;7.50;88.20;;;;;;5030248;28;20025;-68
2022/04/09 02:01:55;;;;;;;5.95;2.35;;;7.40;88.30;;;;;;5025139;28;20029;-69
2022/04/09 02:04:20;;;;;;;4.57;2.17;;;7.40;88.90;;;;;;5011783;28;20069;-68
2022/04/09 02:06:46;;;;;;;5.72;1.90;;;7.40;88.70;;;;;;5010772;28;20030;-68
2022/04/09 02:09:11;;;;;;;6.55;2.42;;;7.40;88.80;;;;;;5011643;28;20116;-68
2022/04/09 02:11:41;;;;;;;7.53;2.40;;;7.30;88.80;;;;;;5011493;28;20034;-69
2022/04/09 02:14:11;;;;;;;6.32;2.08;;;7.30;88.80;;;;;;5011967;28;20135;-68
2022/04/09 02:16:37;;;;;;;5.47;2.17;;;7.30;88.90;;;;;;5012018;28;20350;-68
2022/04/09 02:19:04;;;;;;;5.65;2.85;;;7.40;88.90;;;;;;5011699;28;20034;-68
2022/04/09 02:21:29;;;;;;;7.90;2.58;;;7.30;88.90;;;;;;5011675;28;20037;-68
2022/04/09 02:23:55;;;;;;;6.07;2.63;;;7.40;89.00;;;;;;5028992;28;20038;-68
2022/04/09 02:26:20;;;;;;;7.18;2.22;;;7.30;88.90;;;;;;5032021;28;20033;-68
2022/04/09 02:28:49;;;;;;;6.22;2.22;;;7.30;89.10;;;;;;5028651;28;20128;-68
2022/04/09 02:31:17;;;;;;;6.43;2.33;;;7.30;89.20;;;;;;5031790;28;20113;-69
2022/04/09 02:33:43;;;;;;;6.72;2.38;;;7.30;89.20;;;;;;5019794;28;20506;-68
2022/04/09 02:36:12;;;;;;;6.70;2.55;;;7.30;89.30;;;;;;5011467;28;20046;-68
2022/04/09 02:38:40;;;;;;;6.07;2.40;;;7.30;89.80;;;;;;5011198;28;20036;-68
2022/04/09 02:41:09;;;;;;;6.63;2.22;;;7.30;89.60;;;;;;5011760;28;20037;-68
2022/04/09 02:43:40;;;;;;;6.50;2.95;;;7.30;89.60;;;;;;5011202;28;20030;-68
2022/04/09 02:46:05;;;;;;;8.43;4.35;;;7.30;89.80;;;;;;5011593;28;20065;-69
2022/04/09 02:48:31;;;;;;;5.40;3.10;;;7.30;89.80;;;;;;5010610;28;20014;-69
2022/04/09 02:50:56;;;;;;;8.63;2.90;;;7.30;89.80;;;;;;5011029;28;20386;-69
2022/04/09 02:53:22;;;;;;;4.13;2.92;;;7.20;89.90;;;;;;5022981;28;20028;-69
2022/04/09 02:55:47;;;;;;;4.20;2.22;;;7.10;90.00;;;;;;5014393;28;22974;-69
2022/04/09 02:58:13;;;;;;;6.38;2.13;;;7.10;90.20;;;;;;5017159;28;20136;-69
2022/04/09 03:00:39;;;;;;;5.82;2.40;;;7.00;90.10;;;;;;5011672;28;20470;-69
2022/04/09 03:03:05;;;;;;;4.18;2.30;;;7.00;90.30;;;;;;5011109;28;20044;-69
2022/04/09 03:05:30;;;;;;;6.28;2.50;;;7.00;90.30;;;;;;5010711;28;20034;-69
2022/04/09 03:07:57;;;;;;;6.22;2.05;;;7.00;90.60;;;;;;5010751;28;20034;-69
2022/04/09 03:10:23;;;;;;;6.90;2.50;;;6.90;90.50;;;;;;5011408;28;20545;-68
2022/04/09 03:12:49;;;;;;;7.22;2.38;;;6.90;90.60;;;;;;5018565;28;20168;-68
2022/04/09 03:15:15;;;;;;;4.18;2.00;;;6.90;90.60;;;;;;5031236;28;20116;-68
2022/04/09 03:17:41;;;;;;;5.97;2.90;;;6.80;90.70;;;;;;5010961;28;20030;-69
2022/04/09 03:20:07;;;;;;;5.10;2.40;;;6.80;90.70;;;;;;5014495;28;20014;-69
2022/04/09 03:22:33;;;;;;;5.60;2.00;;;6.80;90.70;;;;;;5022132;28;20039;-69
2022/04/09 03:24:59;;;;;;;7.18;2.55;;;6.70;90.80;;;;;;5014856;28;20116;-69
2022/04/09 03:27:25;;;;;;;4.15;2.40;;;6.70;90.90;;;;;;5014810;28;20052;-69
2022/04/09 03:29:52;;;;;;;5.65;2.17;;;6.60;91.30;;;;;;5033229;28;20026;-68
2022/04/09 03:32:18;;;;;;;7.03;2.20;;;6.60;91.10;;;;;;5028123;28;20042;-69
2022/04/09 03:34:44;;;;;;;7.38;2.22;;;6.60;91.20;;;;;;5031679;28;20108;-68
2022/04/09 03:37:10;;;;;;;6.75;2.53;;;6.60;91.30;;;;;;5016134;28;20035;-68
2022/04/09 03:39:36;;;;;;;7.95;2.55;;;6.50;91.30;;;;;;5014847;28;20026;-68
2022/04/09 03:42:02;;;;;;;8.38;2.88;;;6.50;91.40;;;;;;5027297;28;20112;-68
2022/04/09 03:44:28;;;;;;;6.88;2.50;;;6.50;91.50;;;;;;5020874;28;20471;-68
2022/04/09 03:46:58;;;;;;;7.88;2.90;;;6.50;91.60;;;;;;5019927;28;20038;-69
2022/04/09 03:49:23;;;;;;;9.25;3.00;;;6.40;91.60;;;;;;5032019;28;20030;-68
2022/04/09 03:51:49;;;;;;;5.40;2.40;;;6.40;91.90;;;;;;5025783;28;20056;-67
2022/04/09 03:54:14;;;;;;;4.03;2.33;;;6.40;91.80;;;;;;5014526;28;20040;-68
2022/04/09 03:56:41;;;;;;;8.77;2.83;;;6.40;91.80;;;;;;5014044;28;20038;-68
2022/04/09 03:59:06;;;;;;;8.02;3.42;;;6.40;92.00;;;;;;5014105;28;20041;-67
2022/04/09 04:01:32;;;;;;;8.52;3.47;;;6.40;91.90;;;;;;5012849;28;20030;-68
2022/04/09 04:03:57;;;;;;;6.50;3.08;;;6.40;92.00;;;;;;5024105;28;20141;-68
2022/04/09 04:06:23;;;;;;;7.03;2.97;;;6.40;92.00;;;;;;5014288;28;20551;-69
2022/04/09 04:08:48;;;;;;;9.52;4.30;;;6.30;92.20;;;;;;5023759;28;20377;-67
2022/04/09 04:11:14;;;;;;;6.38;2.75;;;6.30;92.20;;;;;;5015771;28;20042;-68
2022/04/09 04:13:39;;;;;;;8.32;3.10;;;6.30;92.30;;;;;;5013476;28;20064;-68
2022/04/09 04:16:05;;;;;;;5.85;3.00;;;6.30;92.60;;;;;;5033830;28;20029;-68
2022/04/09 04:18:31;;;;;;;5.00;2.40;;;6.20;92.40;;;;;;5031473;28;20036;-67
2022/04/09 04:20:57;;;;;;;6.75;2.80;;;6.30;92.50;;;;;;5033837;28;20431;-68
2022/04/09 04:23:23;;;;;;;6.78;2.92;;;6.20;92.60;;;;;;5018333;28;20667;-68
2022/04/09 04:25:49;;;;;;;10.55;2.67;;;6.20;92.60;;;;;;5017309;28;20528;-68
2022/04/09 04:28:15;;;;;;;4.15;2.47;;;6.20;92.60;;;;;;5019033;28;20113;-69
2022/04/09 04:30:40;;;;;;;6.60;2.67;;;6.20;92.60;;;;;;5013052;28;20130;-69
2022/04/09 04:33:06;;;;;;;8.35;2.40;;;6.20;92.60;;;;;;5012951;28;20116;-69
2022/04/09 04:35:31;;;;;;;10.00;3.08;;;6.20;92.80;;;;;;5013606;28;20490;-68
2022/04/09 04:37:57;;;;;;;9.30;2.97;;;6.10;92.80;;;;;;5022792;28;20033;-69
2022/04/09 04:40:22;;;;;;;10.63;3.42;;;6.20;92.80;;;;;;5032906;28;20420;-68
2022/04/09 04:42:49;;;;;;;5.78;3.08;;;6.10;92.90;;;;;;5011808;28;20101;-68
2022/04/09 04:45:15;;;;;;;6.55;3.03;;;6.10;93.10;;;;;;5022804;28;20039;-68
2022/04/09 04:47:49;;;;;;;6.20;2.97;;;6.10;93.10;;;;;;5030209;28;20033;-68
2022/04/09 04:50:15;;;;;;;7.30;3.08;;;6.20;93.10;;;;;;5024093;28;20034;-69
2022/04/09 04:52:41;;;;;;;6.85;3.13;;;6.10;93.20;;;;;;5013146;28;20034;-65
2022/04/09 04:55:08;;;;;;;4.30;2.70;;;6.20;93.00;;;;;;5012578;28;20121;-68
2022/04/09 04:57:48;;;;;;;11.00;3.83;;;6.20;93.10;;;;;;5012635;28;20029;-69
2022/04/09 05:00:17;;;;;;;8.70;3.28;;;6.20;93.40;;;;;;5012983;28;20026;-71
2022/04/09 05:02:43;;;;;;;6.45;2.88;;;6.10;93.40;;;;;;5015355;28;20074;-71
2022/04/09 05:05:09;;;;;;;8.88;2.90;;;6.10;93.30;;;;;;5011887;28;20050;-71
2022/04/09 05:07:44;;;;;;;7.35;3.08;;;6.10;93.30;;;;;;5012158;28;20108;-69
2022/04/09 05:10:15;;;;;;;6.35;2.60;;;6.10;93.40;;;;;;5013078;28;20561;-69
2022/04/09 05:12:41;;;;;;;6.20;2.83;;;6.10;93.40;;;;;;5020842;28;20131;-69
2022/04/09 05:15:11;;;;;;;8.75;3.28;;;6.10;93.40;;;;;;5032666;28;20022;-69
2022/04/09 05:17:36;;;;;;;5.60;2.60;;;6.10;93.40;;;;;;5030199;28;20528;-69
2022/04/09 05:20:04;;;;;;;8.38;3.60;;;6.20;93.40;;;;;;5032613;28;20064;-69
2022/04/09 05:22:30;;;;;;;6.57;2.97;;;6.20;93.40;;;;;;5023592;28;20038;-69
2022/04/09 05:24:57;;;;;;;7.53;2.92;;;6.20;93.40;;;;;;5012501;28;20041;-70
2022/04/09 05:27:22;;;;;;;8.63;3.30;;;6.20;93.40;;;;;;5017283;28;20091;-69
2022/04/09 05:29:48;;;;;;;5.88;2.70;;;6.20;93.40;;;;;;5026390;28;20037;-69
2022/04/09 05:32:14;;;;;;;8.18;2.80;;;6.30;93.30;;;;;;5013740;28;20064;-69
2022/04/09 05:34:39;;;;;;;11.23;4.30;;;6.30;93.30;;;;;;5030872;28;20083;-69
2022/04/09 05:37:05;;;;;;;6.05;2.83;;;6.30;93.30;;;;;;5023544;28;20602;-69
2022/04/09 05:39:31;;;;;;;10.15;3.83;;;6.40;93.20;;;;;;5031931;28;20025;-69
2022/04/09 05:41:56;;;;;;;5.57;2.50;;;6.40;93.10;;;;;;5019964;28;20495;-70
2022/04/09 05:44:22;;;;;;;6.22;3.25;;;6.40;93.20;;;;;;5012496;28;20026;-69
2022/04/09 05:46:47;;;;;;;6.10;2.38;;;6.40;93.20;;;;;;5014174;28;20037;-69
2022/04/09 05:49:12;;;;;;;6.05;2.63;;;6.50;93.20;;;;;;5011692;28;20048;-69
2022/04/09 05:51:38;;;;;;;7.97;2.75;;;6.50;93.20;;;;;;5022540;28;20497;-69
2022/04/09 05:54:04;;;;;;;8.48;2.75;;;6.50;93.10;;;;;;5012144;28;20113;-70
2022/04/09 05:56:30;;;;;;;7.97;3.20;;;6.50;93.10;;;;;;5012664;28;20132;-70
2022/04/09 05:58:56;;;;;;;6.95;2.67;;;6.60;93.20;;;;;;5029934;28;20044;-70
2022/04/09 06:01:21;;;;;;;9.88;3.22;;;6.60;93.40;;;;;;5017296;28;20037;-69
2022/04/09 06:03:47;;;;;;;9.63;2.85;;;6.70;93.20;;;;;;5011903;28;20050;-69
2022/04/09 06:06:12;;;;;;;6.75;2.50;;;6.80;93.20;;;;;;5012266;28;20042;-70
2022/04/09 06:08:38;;;;;;;7.28;3.25;;;6.90;93.20;;;;;;5011062;28;20054;-70
2022/04/09 06:11:05;;;;;;;5.70;2.63;;;6.80;93.20;;;;;;5010527;28;20061;-71
2022/04/09 06:13:31;;;;;;;6.60;2.97;;;6.90;93.30;;;;;;5030679;28;20184;-71
2022/04/09 06:15:57;;;;;;;6.35;2.78;;;7.00;93.30;;;;;;5017111;28;20068;-71
2022/04/09 06:18:22;;;;;;;5.85;3.38;;;7.10;93.50;;;;;;5013974;28;20050;-71
2022/04/09 06:20:47;;;;;;;6.47;2.58;;;7.20;93.40;;;;;;5019990;28;20112;-71
2022/04/09 06:23:13;;;;;;;5.65;3.22;;;7.30;93.40;;;;;;5013240;28;20025;-71
2022/04/09 06:25:39;;;;;;;14.05;3.65;;;7.40;93.30;;;;;;5014183;28;20517;-72
2022/04/09 06:28:04;;;;;;;5.63;3.10;;;7.40;93.20;;;;;;5011635;28;20045;-70
2022/04/09 06:30:30;;;;;;;7.40;2.80;;;7.50;93.10;;;;;;5011382;28;20505;-70
2022/04/09 06:32:55;;;;;;;7.20;3.20;;;7.50;92.90;;;;;;5012913;28;20026;-71
2022/04/09 06:35:21;;;;;;;9.82;2.67;;;7.60;92.80;;;;;;5013666;28;20503;-71
2022/04/09 06:37:47;;;;;;;7.38;2.88;;;7.60;92.70;;;;;;5022218;28;20557;-71
2022/04/09 06:40:13;;;;;;;12.77;4.90;;;7.70;92.60;;;;;;5030637;28;20108;-71
2022/04/09 06:42:39;;;;;;;8.82;2.60;;;7.70;92.60;;;;;;5013438;28;20494;-71
2022/04/09 06:45:08;;;;;;;9.90;3.13;;;7.80;92.50;;;;;;5023040;28;20524;-71
2022/04/09 06:47:38;;;;;;;6.15;3.08;;;7.80;92.30;;;;;;5020123;28;20409;-72
2022/04/09 06:50:11;;;;;;;11.18;3.70;;;7.90;92.20;;;;;;5016847;28;20400;-72
2022/04/09 06:52:38;;;;;;;8.32;3.50;;;7.90;92.00;;;;;;5021323;28;20425;-72
2022/04/09 06:55:05;;;;;;;10.55;2.58;;;7.90;92.00;;;;;;5018317;28;20393;-71
2022/04/09 06:57:32;;;;;;;11.63;3.53;;;8.00;92.00;;;;;;5017559;28;20473;-71
2022/04/09 07:00:02;;;;;;;10.48;2.97;;;8.00;91.90;;;;;;5014943;28;20069;-72
2022/04/09 07:02:27;;;;;;;8.52;2.95;;;8.00;91.70;;;;;;5015238;28;20108;-72
2022/04/09 07:04:53;;;;;;;11.15;4.32;;;8.10;91.70;;;;;;5013428;28;20112;-72
2022/04/09 07:07:26;;;;;;;7.05;2.97;;;8.10;91.50;;;;;;5020202;28;20037;-71
2022/04/09 07:10:03;;;;;;;8.07;2.60;;;8.00;91.40;;;;;;5020343;28;20477;-72
2022/04/09 07:12:28;;;;;;;13.50;3.75;;;8.10;91.70;;;;;;5021581;28;20038;-72
2022/04/09 07:14:54;;;;;;;7.43;3.10;;;8.20;91.50;;;;;;5024187;28;20041;-73
2022/04/09 07:17:20;;;;;;;8.98;3.42;;;8.30;91.50;;;;;;5014859;28;20048;-72
2022/04/09 07:19:46;;;;;;;8.57;2.60;;;8.30;91.30;;;;;;5029216;28;20033;-73
2022/04/09 07:22:11;;;;;;;8.40;3.50;;;8.30;91.30;;;;;;5027707;28;20022;-73
2022/04/09 07:24:37;;;;;;;11.65;4.38;;;8.50;91.20;;;;;;5014510;28;20029;-73
2022/04/09 07:27:03;;;;;;;10.63;2.88;;;8.60;90.50;;;;;;5026677;28;20057;-74
2022/04/09 07:29:29;;;;;;;8.45;3.25;;;8.60;90.70;;;;;;5022920;28;20033;-74
2022/04/09 07:31:54;;;;;;;8.65;2.60;;;8.70;90.70;;;;;;5029453;28;20087;-70
2022/04/09 07:34:20;;;;;;;8.93;2.88;;;8.80;90.20;;;;;;5017140;28;20030;-75
2022/04/09 07:36:45;;;;;;;8.77;2.65;;;8.80;90.40;;;;;;5035216;28;20107;-75
2022/04/09 07:39:11;;;;;;;8.07;2.92;;;8.90;90.10;;;;;;5019261;28;20432;-72
2022/04/09 07:41:36;;;;;;;8.70;3.08;;;8.80;89.50;;;;;;5014040;28;20496;-68
2022/04/09 07:44:02;;;;;;;6.30;2.50;;;8.90;90.00;;;;;;5030152;28;20056;-68
2022/04/09 07:46:27;;;;;;;7.88;2.70;;;9.00;89.70;;;;;;5031005;28;20083;-67
2022/04/09 07:48:53;;;;;;;7.68;2.70;;;9.00;89.50;;;;;;5017233;28;20084;-68
2022/04/09 07:51:18;;;;;;;10.00;3.72;;;9.00;89.10;;;;;;5014166;28;20030;-68
2022/04/09 07:53:44;;;;;;;7.55;3.28;;;9.10;89.30;;;;;;5013451;28;20381;-68
2022/04/09 07:56:09;;;;;;;10.05;3.28;;;9.10;88.90;;;;;;5013503;28;20030;-68
2022/04/09 07:58:35;;;;;;;6.63;3.20;;;9.10;88.80;;;;;;5017178;28;20018;-67
2022/04/09 08:01:01;;;;;;;7.72;2.70;;;9.10;88.50;;;;;;5022240;28;20485;-68
2022/04/09 08:03:26;;;;;;;6.95;2.78;;;9.10;88.60;;;;;;5023527;28;20483;-69
2022/04/09 08:05:52;;;;;;;6.22;2.63;;;9.20;88.40;;;;;;5019980;28;20033;-68
2022/04/09 08:08:18;;;;;;;6.63;2.90;;;9.20;88.30;;;;;;5012603;28;20025;-68
2022/04/09 08:10:43;;;;;;;5.43;2.67;;;9.30;88.20;;;;;;5018506;28;20040;-68
2022/04/09 08:13:09;;;;;;;6.28;2.92;;;9.40;87.90;;;;;;5022076;28;20029;-68
2022/04/09 08:15:35;;;;;;;11.25;2.95;;;9.30;87.70;;;;;;5023349;28;20480;-68
2022/04/09 08:18:03;;;;;;;8.27;3.20;;;9.40;87.40;;;;;;5022828;28;20026;-69
2022/04/09 08:20:30;;;;;;;8.20;2.65;;;9.50;87.40;;;;;;5021310;28;20084;-68
2022/04/09 08:22:55;;;;;;;10.57;2.90;;;9.50;87.20;;;;;;5023604;28;20037;-69
2022/04/09 08:25:21;;;;;;;7.55;2.70;;;9.60;87.00;;;;;;5023281;28;21809;-69
2022/04/09 08:27:49;;;;;;;7.28;2.55;;;9.70;86.70;;;;;;5019151;28;20157;-68
2022/04/09 08:30:15;;;;;;;4.32;2.17;;;9.70;85.40;;;;;;5015532;28;20076;-68
2022/04/09 08:32:41;;;;;;;6.18;2.20;;;9.80;85.40;;;;;;5022729;28;20030;-68
2022/04/09 08:35:06;;;;;;;8.63;2.80;;;9.90;85.00;;;;;;5029336;28;20028;-68
2022/04/09 08:37:32;;;;;;;16.83;2.80;;;9.90;84.80;;;;;;5028274;28;20029;-68
2022/04/09 08:39:58;;;;;;;13.10;2.47;;;10.00;84.30;;;;;;5016086;28;20033;-68
2022/04/09 08:42:24;;;;;;;5.82;2.17;;;10.10;84.00;;;;;;5016604;28;20484;-69
2022/04/09 08:44:50;;;;;;;5.38;3.03;;;10.10;83.70;;;;;;5033173;28;20376;-68
2022/04/09 08:47:15;;;;;;;5.28;2.40;;;10.10;83.20;;;;;;5023849;28;20037;-68
2022/04/09 08:49:47;;;;;;;5.75;2.20;;;10.20;83.00;;;;;;5038383;28;20025;-68
2022/04/09 08:52:14;;;;;;;6.15;2.55;;;10.30;81.80;;;;;;5029578;28;20033;-68
2022/04/09 08:54:41;;;;;;;11.88;2.67;;;10.30;81.90;;;;;;5016601;28;20532;-68
2022/04/09 08:57:07;;;;;;;7.50;2.20;;;10.50;81.60;;;;;;5024829;28;20104;-69
2022/04/09 08:59:32;;;;;;;6.00;1.95;;;10.50;80.40;;;;;;5031769;28;20025;-69
2022/04/09 09:01:58;;;;;;;5.28;2.40;;;10.60;79.20;;;;;;5017238;28;20036;-69
2022/04/09 09:04:23;;;;;;;6.95;2.13;;;10.60;79.40;;;;;;5030202;28;20049;-69
2022/04/09 09:06:49;;;;;;;8.00;2.90;;;10.60;77.80;;;;;;5028119;28;20049;-68
2022/04/09 09:09:44;;;;;;;6.07;2.65;;;10.60;77.40;;;;;;5010635;28;20441;-69
2022/04/09 09:12:12;;;;;;;5.43;2.58;;;10.50;76.80;;;;;;5008590;28;20116;-69
2022/04/09 09:14:44;;;;;;;6.28;2.47;;;10.50;75.90;;;;;;5012744;28;20076;-69
2022/04/09 09:17:11;;;;;;;10.85;2.70;;;10.40;76.50;;;;;;5014109;28;20488;-69
2022/04/09 09:19:48;;;;;;;5.63;2.20;;;10.50;75.90;;;;;;5019961;28;20022;-69
2022/04/09 09:22:14;;;;;;;7.32;2.15;;;10.50;76.10;;;;;;5019464;28;20109;-70
2022/04/09 09:24:40;;;;;;;9.90;2.60;;;10.50;75.90;;;;;;5011744;28;20030;-70
2022/04/09 09:27:07;;;;;;;7.30;2.22;;;10.50;73.60;;;;;;5011963;28;20107;-70
2022/04/09 09:29:33;;;;;;;6.65;2.20;;;10.40;72.70;;;;;;5027950;28;20049;-70
2022/04/09 09:32:01;;;;;;;7.68;2.47;;;10.40;73.50;;;;;;5015004;28;20041;-70
2022/04/09 09:34:28;;;;;;;4.13;2.03;;;10.40;73.60;;;;;;5017987;28;20029;-72
2022/04/09 09:36:53;;;;;;;6.32;2.47;;;10.50;74.20;;;;;;5013239;28;20030;-70
2022/04/09 09:39:22;;;;;;;7.85;2.30;;;10.60;74.50;;;;;;5025216;28;20060;-69
2022/04/09 09:41:50;;;;;;;7.93;2.20;;;10.50;72.90;;;;;;5011676;28;20034;-70
2022/04/09 09:44:17;;;;;;;6.85;2.45;;;10.60;72.30;;;;;;5016012;28;20085;-70
2022/04/09 09:46:45;;;;;;;4.30;2.88;;;10.60;72.30;;;;;;5037614;28;20059;-71
2022/04/09 09:49:11;;;;;;;8.25;2.60;;;10.70;72.80;;;;;;5012993;28;20037;-71
2022/04/09 09:51:40;;;;;;;6.18;2.30;;;10.70;71.90;;;;;;5014429;28;20091;-71
2022/04/09 09:54:07;;;;;;;4.65;2.25;;;10.80;71.50;;;;;;5026335;28;20199;-70
2022/04/09 09:56:37;;;;;;;6.05;2.20;;;10.90;71.80;;;;;;5013253;28;20033;-69
2022/04/09 09:59:05;;;;;;;4.68;2.00;;;10.90;71.10;;;;;;5011443;28;20040;-70
2022/04/09 10:01:31;;;;;;;4.53;1.85;;;11.00;71.00;;;;;;5026925;28;20048;-70
2022/04/09 10:03:58;;;;;;;5.93;2.22;;;11.10;69.50;;;;;;5023150;28;20418;-70
2022/04/09 10:06:23;;;;;;;3.50;1.83;;;11.10;69.10;;;;;;5011514;28;20073;-70
2022/04/09 10:08:48;;;;;;;5.93;2.70;;;11.20;68.30;;;;;;5010794;28;20103;-70
2022/04/09 10:11:17;;;;;;;3.17;1.90;;;11.20;69.20;;;;;;5012118;28;20197;-70
2022/04/09 10:13:44;;;;;;;8.82;2.83;;;11.30;68.90;;;;;;5041224;28;20487;-70
2022/04/09 10:16:11;;;;;;;6.20;2.25;;;11.40;68.80;;;;;;5033103;28;20044;-70
2022/04/09 10:18:37;;;;;;;7.43;3.13;;;11.40;67.40;;;;;;5010078;28;20065;-71
2022/04/09 10:21:03;;;;;;;7.07;2.40;;;11.40;64.90;;;;;;5016687;28;20049;-70
2022/04/09 10:23:32;;;;;;;7.10;2.20;;;11.30;65.40;;;;;;5014345;28;20436;-70
2022/04/09 10:26:00;;;;;;;7.38;3.10;;;11.40;66.20;;;;;;5019430;28;20044;-71
2022/04/09 10:28:37;;;;;;;6.35;1.83;;;11.60;66.20;;;;;;5020118;28;20026;-71
2022/04/09 10:31:24;;;;;;;7.30;1.83;;;11.70;65.20;;;;;;5026851;28;20034;-71
2022/04/09 10:33:55;;;;;;;8.80;3.08;;;11.70;64.10;;;;;;5010691;28;20057;-71
2022/04/09 10:36:39;;;;;;;5.10;2.28;;;11.70;65.00;;;;;;5013904;28;20029;-71
2022/04/09 10:39:39;;;;;;;5.55;1.80;;;11.70;64.70;;;;;;5010524;28;20808;-70
2022/04/09 10:42:08;;;;;;;3.85;1.77;;;11.60;65.00;;;;;;5012813;28;20037;-70
2022/04/09 10:44:42;;;;;;;6.63;2.10;;;11.60;64.70;;;;;;5011672;28;20068;-71
2022/04/09 10:47:09;;;;;;;5.13;2.53;;;11.70;64.70;;;;;;5007822;28;20389;-71
2022/04/09 10:49:34;;;;;;;6.97;2.35;;;11.70;64.60;;;;;;5012359;28;20044;-70
2022/04/09 10:52:11;;;;;;;6.55;2.30;;;11.70;64.50;;;;;;5028107;28;20038;-71
2022/04/09 10:54:41;;;;;;;5.57;2.17;;;11.80;64.70;;;;;;5021044;28;20040;-71
2022/04/09 10:57:09;;;;;;;5.72;2.03;;;11.90;65.10;;;;;;5028817;28;20037;-71
2022/04/09 10:59:36;;;;;;;5.43;1.85;;;12.00;64.60;;;;;;5043456;28;20033;-71
2022/04/09 11:02:03;;;;;;;4.93;1.80;;;12.00;64.80;;;;;;5010166;28;20617;-71
2022/04/09 11:04:29;;;;;;;6.32;1.80;;;12.10;63.80;;;;;;5010425;28;20199;-71
2022/04/09 11:07:03;;;;;;;6.13;2.00;;;12.20;64.50;;;;;;5010713;28;20586;-73
2022/04/09 11:10:01;;;;;;;4.38;1.90;;;12.40;64.20;;;;;;5024945;28;20036;-72
2022/04/09 11:12:28;;;;;;;4.53;1.80;;;12.30;63.50;;;;;;5009506;28;20026;-71
2022/04/09 11:15:04;;;;;;;4.18;1.60;;;12.30;63.00;;;;;;5009590;28;20033;-70
2022/04/09 11:17:33;;;;;;;5.40;1.88;;;12.20;62.70;;;;;;5010554;28;20117;-70
2022/04/09 11:20:11;;;;;;;6.47;2.28;;;12.20;63.40;;;;;;5017327;28;20021;-69
2022/04/09 11:22:47;;;;;;;7.43;1.77;;;12.20;63.20;;;;;;5016753;28;20385;-69
2022/04/09 11:25:30;;;;;;;3.40;1.77;;;12.30;63.30;;;;;;5011019;28;20080;-69
2022/04/09 11:28:13;;;;;;;5.32;1.63;;;12.40;63.20;;;;;;5019877;28;20041;-70
2022/04/09 11:31:00;;;;;;;4.22;1.73;;;12.40;62.70;;;;;;5017540;28;20068;-69
2022/04/09 11:33:26;;;;;;;6.03;1.95;;;12.40;62.30;;;;;;5013926;28;20105;-69
2022/04/09 11:35:52;;;;;;;2.78;1.50;;;12.50;61.50;;;;;;5023176;28;20059;-71
2022/04/09 11:38:18;;;;;;;5.65;1.58;;;12.40;60.00;;;;;;5028932;28;20085;-70
2022/04/09 11:40:47;;;;;;;5.15;1.83;;;12.40;60.30;;;;;;5026179;28;20124;-70
2022/04/09 11:43:14;;;;;;;4.22;1.70;;;12.40;60.00;;;;;;5020006;28;20462;-69
2022/04/09 11:45:40;;;;;;;3.60;1.40;;;12.40;59.40;;;;;;5014110;28;20428;-69
2022/04/09 11:48:06;;;;;;;4.05;1.73;;;12.50;60.00;;;;;;5029173;28;20037;-69
2022/04/09 11:50:33;;;;;;;6.93;1.75;;;12.40;59.30;;;;;;5031547;28;20455;-70
2022/04/09 11:53:22;;;;;;;2.92;1.48;;;12.40;59.70;;;;;;5021884;28;20030;-70
2022/04/09 11:55:49;;;;;;;3.03;1.33;;;12.40;59.60;;;;;;5014450;28;20034;-69
2022/04/09 11:58:18;;;;;;;3.25;1.33;;;12.40;60.00;;;;;;5013530;28;20026;-69
2022/04/09 12:00:47;;;;;;;4.75;1.70;;;12.30;59.50;;;;;;5016966;28;20034;-70
2022/04/09 12:03:16;;;;;;;4.75;1.75;;;12.30;60.30;;;;;;5014280;28;20069;-70
2022/04/09 12:05:46;;;;;;;5.85;1.95;;;12.40;60.70;;;;;;5019247;28;20045;-70
2022/04/09 12:08:14;;;;;;;7.43;1.50;;;12.40;61.00;;;;;;5013337;28;20026;-70
2022/04/09 12:11:02;;;;;;;3.50;1.27;;;12.40;61.00;;;;;;5023860;28;20040;-70
2022/04/09 12:13:30;;;;;;;3.88;1.15;;;12.40;61.40;;;;;;5017178;28;20037;-69
2022/04/09 12:16:20;;;;;;;3.85;1.30;;;12.40;61.20;;;;;;5021864;28;20081;-69
2022/04/09 12:18:48;;;;;;;3.72;1.65;;;12.30;61.30;;;;;;5014397;28;20140;-69
2022/04/09 12:21:21;;;;;;;3.78;1.48;;;12.40;61.90;;;;;;5014570;28;20466;-69
2022/04/09 12:23:59;;;;;;;5.53;1.80;;;12.30;61.20;;;;;;5012429;28;20026;-70
2022/04/09 12:26:25;;;;;;;3.55;1.40;;;12.20;61.30;;;;;;5013054;28;20513;-69
2022/04/09 12:29:11;;;;;;;3.25;1.40;;;12.20;61.00;;;;;;5012851;28;20026;-69
2022/04/09 12:31:38;;;;;;;5.25;1.80;;;12.10;61.00;;;;;;5024351;28;20480;-70
2022/04/09 12:34:04;;;;;;;6.32;1.40;;;12.00;61.20;;;;;;5022836;28;20496;-69
2022/04/09 12:36:30;;;;;;;5.40;1.80;;;12.00;61.60;;;;;;5017682;28;20044;-69
2022/04/09 12:38:55;;;;;;;4.53;1.40;;;12.00;62.20;;;;;;5018736;28;20025;-69
2022/04/09 12:41:21;;;;;;;4.75;1.60;;;12.10;62.70;;;;;;5019555;28;20065;-68
2022/04/09 12:43:47;;;;;;;7.97;1.88;;;12.10;62.70;;;;;;5011821;28;20396;-69
2022/04/09 12:46:18;;;;;;;4.20;1.30;;;12.10;63.20;;;;;;5015632;28;20046;-69
2022/04/09 12:48:50;;;;;;;6.68;1.90;;;12.20;63.30;;;;;;5026336;28;20508;-69
2022/04/09 12:51:18;;;;;;;2.25;1.40;;;12.20;62.70;;;;;;5017770;28;20378;-68
2022/04/09 12:53:45;;;;;;;5.40;1.30;;;12.30;62.80;;;;;;5013898;28;20076;-68
2022/04/09 12:56:13;;;;;;;3.30;1.10;;;12.30;63.10;;;;;;5014860;28;20119;-69
2022/04/09 12:58:38;;;;;;;2.85;1.45;;;12.30;63.00;;;;;;5015247;28;20373;-71